createdAt,value
2018-06-03T00:01:17.970Z,98178.33
2018-06-03T00:03:45.840Z,98175.02
2018-06-03T00:06:13.480Z,98176.83
2018-06-03T00:08:42.485Z,98169.60
2018-06-03T00:11:10.201Z,98174.06
2018-06-03T00:13:37.850Z,98169.75
2018-06-03T00:16:05.561Z,98172.52
2018-06-03T00:18:33.218Z,98172.61
2018-06-03T00:24:39.628Z,98167.22
2018-06-03T00:27:08.827Z,98165.50
2018-06-03T00:29:37.745Z,98170.63
2018-06-03T00:32:06.697Z,98169.61
2018-06-03T00:34:35.731Z,98164.14
2018-06-03T00:37:04.767Z,98165.64
2018-06-03T00:39:34.167Z,98166.66
2018-06-03T00:42:03.393Z,98172.81
2018-06-03T00:44:32.383Z,98164.59
2018-06-03T00:47:01.515Z,98176.88
2018-06-03T00:49:30.445Z,98171.41
2018-06-03T00:51:59.505Z,98170.39
2018-06-03T00:54:28.733Z,98167.78
2018-06-03T00:57:09.454Z,98168.01
2018-06-03T00:59:39.204Z,98168.36
2018-06-03T01:02:08.721Z,98163.23
2018-06-03T01:04:37.778Z,98165.52
2018-06-03T01:07:06.710Z,98163.67
2018-06-03T01:09:35.850Z,98163.92
2018-06-03T01:12:05.331Z,98162.65
2018-06-03T01:14:34.263Z,98167.56
2018-06-03T01:17:03.882Z,98168.45
2018-06-03T01:19:33.075Z,98164.60
2018-06-03T01:22:02.340Z,98169.36
2018-06-03T01:24:31.362Z,98172.77
2018-06-03T01:27:00.439Z,98168.45
2018-06-03T01:29:29.708Z,98172.33
2018-06-03T01:31:59.116Z,98173.44
2018-06-03T01:34:28.183Z,98171.83
2018-06-03T01:36:57.612Z,98161.81
2018-06-03T01:39:26.655Z,98162.07
2018-06-03T01:41:57.508Z,98162.16
2018-06-03T01:44:26.739Z,98153.41
2018-06-03T01:46:56.601Z,98154.55
2018-06-03T01:49:25.474Z,98153.18
2018-06-03T01:51:54.636Z,98151.80
2018-06-03T01:54:23.603Z,98149.92
2018-06-03T01:56:52.551Z,98144.33
2018-06-03T01:59:21.475Z,98148.51
2018-06-03T02:01:50.921Z,98144.88
2018-06-03T02:04:19.865Z,98148.82
2018-06-03T02:06:49.199Z,98148.82
2018-06-03T02:09:18.510Z,98144.14
2018-06-03T02:11:48.325Z,98139.48
2018-06-03T02:14:17.478Z,98143.23
2018-06-03T02:16:46.703Z,98141.08
2018-06-03T02:19:15.937Z,98141.16
2018-06-03T02:21:45.061Z,98136.58
2018-06-03T02:24:14.377Z,98142.78
2018-06-03T02:26:43.334Z,98139.72
2018-06-03T02:29:12.324Z,98138.70
2018-06-03T02:31:41.621Z,98143.69
2018-06-03T02:34:11.088Z,98141.77
2018-06-03T02:36:39.926Z,98140.18
2018-06-03T02:39:09.305Z,98144.80
2018-06-03T02:41:38.387Z,98142.41
2018-06-03T02:44:07.600Z,98138.33
2018-06-03T02:46:36.670Z,98137.68
2018-06-03T02:49:05.677Z,98134.81
2018-06-03T02:51:34.832Z,98137.30
2018-06-03T02:54:04.117Z,98136.05
2018-06-03T02:56:33.053Z,98137.41
2018-06-03T02:59:01.916Z,98129.81
2018-06-03T03:01:31.559Z,98130.72
2018-06-03T03:04:00.596Z,98138.06
2018-06-03T03:06:29.657Z,98135.45
2018-06-03T03:08:59.568Z,98142.14
2018-06-03T03:11:28.592Z,98140.10
2018-06-03T03:13:57.646Z,98138.06
2018-06-03T03:16:26.607Z,98142.48
2018-06-03T03:18:55.895Z,98142.83
2018-06-03T03:21:24.932Z,98138.40
2018-06-03T03:23:54.033Z,98142.22
2018-06-03T03:26:23.198Z,98138.06
2018-06-03T03:28:52.494Z,98142.38
2018-06-03T03:31:27.473Z,98141.39
2018-06-03T03:33:56.425Z,98146.50
2018-06-03T03:36:25.621Z,98145.36
2018-06-03T03:38:54.882Z,98154.89
2018-06-03T03:41:24.302Z,98148.31
2018-06-03T03:43:54.270Z,98149.30
2018-06-03T03:46:23.372Z,98147.37
2018-06-03T03:48:52.517Z,98149.44
2018-06-03T03:51:21.829Z,98146.23
2018-06-03T03:53:51.739Z,98151.91
2018-06-03T03:56:20.834Z,98156.33
2018-06-03T03:58:50.130Z,98152.02
2018-06-03T04:01:19.228Z,98158.59
2018-06-03T04:03:48.514Z,98154.89
2018-06-03T04:06:17.516Z,98152.17
2018-06-03T04:08:46.743Z,98151.83
2018-06-03T04:11:15.799Z,98158.16
2018-06-03T04:13:44.730Z,98153.95
2018-06-03T04:16:14.269Z,98163.94
2018-06-03T04:18:43.832Z,98160.19
2018-06-03T04:21:12.700Z,98164.77
2018-06-03T04:23:41.967Z,98162.61
2018-06-03T04:26:11.675Z,98156.14
2018-06-03T04:28:40.941Z,98162.58
2018-06-03T04:31:09.852Z,98158.64
2018-06-03T04:33:38.984Z,98169.88
2018-06-03T04:36:08.253Z,98172.19
2018-06-03T04:38:37.463Z,98174.72
2018-06-03T04:41:06.366Z,98170.19
2018-06-03T04:43:35.269Z,98173.17
2018-06-03T04:46:04.184Z,98178.66
2018-06-03T04:48:33.059Z,98179.48
2018-06-03T04:51:02.610Z,98180.77
2018-06-03T04:53:31.679Z,98185.53
2018-06-03T04:56:01.013Z,98181.02
2018-06-03T04:58:30.049Z,98188.97
2018-06-03T05:00:59.158Z,98188.52
2018-06-03T05:03:28.552Z,98193.83
2018-06-03T05:05:57.498Z,98187.13
2018-06-03T05:08:26.429Z,98190.22
2018-06-03T05:10:55.823Z,98192.46
2018-06-03T05:13:25.099Z,98187.83
2018-06-03T05:15:54.461Z,98190.12
2018-06-03T05:18:23.569Z,98196.23
2018-06-03T05:20:52.623Z,98188.41
2018-06-03T05:23:21.772Z,98187.52
2018-06-03T05:25:50.783Z,98191.98
2018-06-03T05:28:20.013Z,98193.10
2018-06-03T05:30:49.266Z,98186.08
2018-06-03T05:33:18.338Z,98184.11
2018-06-03T05:35:47.272Z,98185.06
2018-06-03T05:38:16.416Z,98181.31
2018-06-03T05:40:45.556Z,98194.06
2018-06-03T05:43:14.475Z,98185.08
2018-06-03T05:45:43.340Z,98191.66
2018-06-03T05:48:12.512Z,98188.94
2018-06-03T05:50:41.684Z,98192.16
2018-06-03T05:53:10.652Z,98187.58
2018-06-03T05:55:39.626Z,98188.95
2018-06-03T05:58:08.925Z,98187.14
2018-06-03T06:00:38.008Z,98183.92
2018-06-03T06:03:06.926Z,98184.84
2018-06-03T06:05:35.970Z,98183.83
2018-06-03T06:08:05.080Z,98182.42
2018-06-03T06:10:34.242Z,98183.64
2018-06-03T06:13:09.249Z,98186.12
2018-06-03T06:15:38.132Z,98181.18
2018-06-03T06:18:07.501Z,98187.54
2018-06-03T06:20:36.635Z,98189.36
2018-06-03T06:23:05.664Z,98189.58
2018-06-03T06:25:34.783Z,98184.37
2018-06-03T06:28:03.644Z,98184.53
2018-06-03T06:30:32.830Z,98186.34
2018-06-03T06:33:02.024Z,98188.45
2018-06-03T06:35:31.291Z,98194.02
2018-06-03T06:38:00.471Z,98185.64
2018-06-03T06:40:29.491Z,98186.87
2018-06-03T06:42:58.754Z,98188.41
2018-06-03T06:45:27.891Z,98183.59
2018-06-03T06:47:57.083Z,98180.98
2018-06-03T06:50:26.200Z,98188.48
2018-06-03T06:52:55.337Z,98183.02
2018-06-03T06:55:24.437Z,98183.21
2018-06-03T06:57:53.808Z,98185.58
2018-06-03T07:00:23.115Z,98186.91
2018-06-03T07:02:51.996Z,98183.48
2018-06-03T07:05:21.030Z,98182.75
2018-06-03T07:07:50.188Z,98188.98
2018-06-03T07:10:20.271Z,98183.66
2018-06-03T07:12:49.147Z,98185.08
2018-06-03T07:15:18.888Z,98182.12
2018-06-03T07:17:47.695Z,98179.59
2018-06-03T07:20:16.810Z,98181.59
2018-06-03T07:22:45.606Z,98174.67
2018-06-03T07:25:14.682Z,98178.31
2018-06-03T07:27:43.730Z,98191.48
2018-06-03T07:30:12.923Z,98182.00
2018-06-03T07:32:42.321Z,98183.64
2018-06-03T07:35:11.172Z,98188.13
2018-06-03T07:37:40.323Z,98183.94
2018-06-03T07:40:09.181Z,98186.07
2018-06-03T07:42:38.609Z,98183.11
2018-06-03T07:45:07.827Z,98181.78
2018-06-03T07:47:37.254Z,98181.48
2018-06-03T07:50:06.254Z,98180.48
2018-06-03T07:52:35.447Z,98175.77
2018-06-03T07:55:04.471Z,98182.62
2018-06-03T07:57:33.222Z,98169.45
2018-06-03T08:00:02.582Z,98173.41
2018-06-03T08:02:31.824Z,98175.81
2018-06-03T08:05:00.933Z,98170.58
2018-06-03T08:07:30.043Z,98172.16
2018-06-03T08:09:59.470Z,98166.56
2018-06-03T08:12:28.403Z,98163.65
2018-06-03T08:14:57.334Z,98171.70
2018-06-03T08:17:26.297Z,98164.70
2018-06-03T08:19:55.727Z,98160.34
2018-06-03T08:22:25.138Z,98155.86
2018-06-03T08:24:53.925Z,98161.16
2018-06-03T08:27:23.310Z,98163.53
2018-06-03T08:29:52.225Z,98157.70
2018-06-03T08:32:21.187Z,98160.52
2018-06-03T08:34:50.224Z,98162.53
2018-06-03T08:37:19.399Z,98155.08
2018-06-03T08:39:48.562Z,98156.39
2018-06-03T08:42:17.918Z,98152.22
2018-06-03T08:44:46.875Z,98147.86
2018-06-03T08:47:16.090Z,98144.69
2018-06-03T08:49:45.051Z,98149.45
2018-06-03T08:52:13.823Z,98149.45
2018-06-03T08:54:42.972Z,98147.41
2018-06-03T08:57:12.198Z,98150.91
2018-06-03T08:59:41.530Z,98148.20
2018-06-03T09:02:10.374Z,98142.38
2018-06-03T09:04:39.406Z,98145.02
2018-06-03T09:07:08.466Z,98136.86
2018-06-03T09:09:37.504Z,98145.28
2018-06-03T09:12:06.679Z,98142.69
2018-06-03T09:14:35.920Z,98139.56
2018-06-03T09:17:05.510Z,98139.10
2018-06-03T09:19:34.464Z,98134.93
2018-06-03T09:22:03.649Z,98134.54
2018-06-03T09:24:32.787Z,98131.66
2018-06-03T09:27:01.627Z,98131.27
2018-06-03T09:29:30.735Z,98130.47
2018-06-03T09:31:59.757Z,98134.01
2018-06-03T09:34:28.865Z,98130.72
2018-06-03T09:36:58.177Z,98123.05
2018-06-03T09:39:27.268Z,98122.66
2018-06-03T09:41:56.633Z,98128.55
2018-06-03T09:44:25.792Z,98125.01
2018-06-03T09:46:54.560Z,98122.50
2018-06-03T09:49:23.689Z,98121.28
2018-06-03T09:51:52.898Z,98126.48
2018-06-03T09:54:22.141Z,98129.09
2018-06-03T09:56:51.419Z,98123.09
2018-06-03T09:59:20.774Z,98124.16
2018-06-03T10:01:49.840Z,98124.42
2018-06-03T10:04:18.845Z,98119.94
2018-06-03T10:06:47.967Z,98115.89
2018-06-03T10:09:17.197Z,98118.42
2018-06-03T10:11:46.180Z,98109.55
2018-06-03T10:14:15.452Z,98113.97
2018-06-03T10:16:44.647Z,98110.76
2018-06-03T10:19:13.835Z,98107.24
2018-06-03T10:21:42.764Z,98099.02
2018-06-03T10:24:12.157Z,98098.34
2018-06-03T10:26:41.019Z,98097.24
2018-06-03T10:29:10.881Z,98097.66
2018-06-03T10:31:40.174Z,98094.31
2018-06-03T10:34:09.165Z,98094.95
2018-06-03T10:36:38.286Z,98093.41
2018-06-03T10:39:08.153Z,98088.32
2018-06-03T10:41:37.638Z,98090.18
2018-06-03T10:44:06.685Z,98092.28
2018-06-03T10:46:36.018Z,98087.34
2018-06-03T10:49:05.254Z,98091.61
2018-06-03T10:51:34.516Z,98094.06
2018-06-03T10:54:03.352Z,98078.50
2018-06-03T10:56:32.345Z,98076.69
2018-06-03T10:59:01.718Z,98078.35
2018-06-03T11:01:30.737Z,98067.52
2018-06-03T11:03:59.842Z,98067.35
2018-06-03T11:06:28.930Z,98060.08
2018-06-03T11:08:57.826Z,98056.15
2018-06-03T11:11:27.196Z,98060.48
2018-06-03T11:13:56.473Z,98055.92
2018-06-03T11:16:25.724Z,98052.20
2018-06-03T11:18:54.674Z,98045.27
2018-06-03T11:21:23.788Z,98053.55
2018-06-03T11:23:53.126Z,98041.91
2018-06-03T11:26:22.305Z,98048.02
2018-06-03T11:28:51.521Z,98049.23
2018-06-03T11:31:20.535Z,98047.84
2018-06-03T11:33:49.656Z,98048.64
2018-06-03T11:36:18.966Z,98051.77
2018-06-03T11:38:48.193Z,98032.23
2018-06-03T11:41:17.724Z,98031.55
2018-06-03T11:43:47.003Z,98022.45
2018-06-03T11:46:16.265Z,98032.32
2018-06-03T11:48:45.103Z,98017.02
2018-06-03T11:51:14.074Z,98021.36
2018-06-03T11:53:42.848Z,98014.70
2018-06-03T11:56:12.008Z,98016.27
2018-06-03T11:58:51.479Z,98009.52
2018-06-03T12:01:20.435Z,98007.13
2018-06-03T12:03:49.451Z,98008.45
2018-06-03T12:06:18.357Z,98009.16
2018-06-03T12:08:47.471Z,98014.66
2018-06-03T12:11:16.552Z,98009.92
2018-06-03T12:13:45.497Z,98008.92
2018-06-03T12:16:15.011Z,98006.38
2018-06-03T12:18:44.103Z,98007.73
2018-06-03T12:21:13.160Z,97993.75
2018-06-03T12:23:42.123Z,97989.98
2018-06-03T12:26:11.110Z,97989.45
2018-06-03T12:28:40.479Z,97983.61
2018-06-03T12:31:09.472Z,97977.09
2018-06-03T12:33:38.321Z,97981.69
2018-06-03T12:36:07.218Z,97973.66
2018-06-03T12:38:36.283Z,97970.81
2018-06-03T12:41:05.152Z,97964.20
2018-06-03T12:43:34.238Z,97961.98
2018-06-03T12:46:04.012Z,97961.25
2018-06-03T12:48:33.131Z,97960.38
2018-06-03T12:51:01.997Z,97958.11
2018-06-03T12:53:30.928Z,97944.66
2018-06-03T12:55:59.777Z,97949.88
2018-06-03T12:58:29.059Z,97951.80
2018-06-03T13:00:58.318Z,97948.95
2018-06-03T13:03:27.677Z,97945.50
2018-06-03T13:05:57.368Z,97943.73
2018-06-03T13:08:26.303Z,97943.75
2018-06-03T13:10:55.374Z,97945.44
2018-06-03T13:13:24.533Z,97939.03
2018-06-03T13:15:53.735Z,97933.78
2018-06-03T13:18:22.721Z,97927.61
2018-06-03T13:20:51.706Z,97923.36
2018-06-03T13:23:21.173Z,97923.85
2018-06-03T13:25:50.034Z,97920.98
2018-06-03T13:28:18.844Z,97914.32
2018-06-03T13:30:47.831Z,97907.86
2018-06-03T13:33:17.181Z,97906.16
2018-06-03T13:35:46.614Z,97899.96
2018-06-03T13:38:15.702Z,97894.73
2018-06-03T13:40:44.890Z,97896.33
2018-06-03T13:43:13.979Z,97895.47
2018-06-03T13:45:43.136Z,97893.47
2018-06-03T13:48:12.047Z,97887.05
2018-06-03T13:50:40.987Z,97886.05
2018-06-03T13:53:10.046Z,97889.08
2018-06-03T13:55:39.128Z,97883.39
2018-06-03T13:58:08.411Z,97879.15
2018-06-03T14:00:37.386Z,97877.79
2018-06-03T14:03:06.640Z,97874.93
2018-06-03T14:05:35.823Z,97874.60
2018-06-03T14:08:04.665Z,97876.67
2018-06-03T14:10:33.738Z,97871.50
2018-06-03T14:13:02.943Z,97869.08
2018-06-03T14:15:32.083Z,97872.08
2018-06-03T14:18:01.329Z,97869.42
2018-06-03T14:20:30.542Z,97866.25
2018-06-03T14:22:59.386Z,97859.02
2018-06-03T14:25:28.459Z,97855.94
2018-06-03T14:27:57.560Z,97853.50
2018-06-03T14:30:26.851Z,97843.80
2018-06-03T14:32:55.618Z,97835.45
2018-06-03T14:35:25.060Z,97842.71
2018-06-03T14:37:54.421Z,97847.47
2018-06-03T14:40:23.599Z,97828.42
2018-06-03T14:42:52.559Z,97826.22
2018-06-03T14:45:21.438Z,97824.04
2018-06-03T14:47:50.645Z,97827.95
2018-06-03T14:50:19.659Z,97823.17
2018-06-03T14:52:48.877Z,97822.60
2018-06-03T14:55:18.082Z,97818.50
2018-06-03T14:57:47.195Z,97814.88
2018-06-03T15:00:16.377Z,97803.27
2018-06-03T15:02:45.500Z,97796.33
2018-06-03T15:05:14.662Z,97793.80
2018-06-03T15:07:43.530Z,97797.53
2018-06-03T15:10:12.585Z,97792.61
2018-06-03T15:12:42.058Z,97795.80
2018-06-03T15:15:11.196Z,97795.80
2018-06-03T15:17:40.377Z,97793.95
2018-06-03T15:20:09.636Z,97794.77
2018-06-03T15:22:38.857Z,97788.00
2018-06-03T15:25:07.939Z,97789.40
2018-06-03T15:27:37.040Z,97787.28
2018-06-03T15:30:06.135Z,97785.38
2018-06-03T15:32:35.017Z,97781.84
2018-06-03T15:35:04.138Z,97788.83
2018-06-03T15:37:33.313Z,97784.38
2018-06-03T15:40:02.704Z,97781.14
2018-06-03T15:42:32.190Z,97778.78
2018-06-03T15:45:01.434Z,97772.83
2018-06-03T15:47:30.877Z,97771.10
2018-06-03T15:50:00.145Z,97773.97
2018-06-03T15:52:29.456Z,97770.93
2018-06-03T15:54:58.713Z,97766.50
2018-06-03T15:57:28.059Z,97766.59
2018-06-03T15:59:57.363Z,97769.27
2018-06-03T16:02:26.394Z,97766.53
2018-06-03T16:04:56.321Z,97768.48
2018-06-03T16:07:25.740Z,97757.84
2018-06-03T16:09:54.929Z,97759.65
2018-06-03T16:12:24.084Z,97762.42
2018-06-03T16:14:53.244Z,97757.52
2018-06-03T16:17:22.372Z,97750.92
2018-06-03T16:19:51.778Z,97754.84
2018-06-03T16:22:20.928Z,97748.94
2018-06-03T16:24:50.031Z,97749.98
2018-06-03T16:27:19.356Z,97745.88
2018-06-03T16:29:48.447Z,97747.27
2018-06-03T16:32:17.389Z,97750.14
2018-06-03T16:34:46.889Z,97748.94
2018-06-03T16:37:15.842Z,97748.75
2018-06-03T16:39:45.200Z,97745.73
2018-06-03T16:42:14.170Z,97746.64
2018-06-03T16:44:43.280Z,97748.28
2018-06-03T16:47:12.513Z,97743.73
2018-06-03T16:49:42.386Z,97743.38
2018-06-03T16:52:11.675Z,97739.05
2018-06-03T16:54:40.928Z,97737.64
2018-06-03T16:57:10.223Z,97738.32
2018-06-03T16:59:39.371Z,97729.61
2018-06-03T17:02:08.509Z,97734.88
2018-06-03T17:04:37.565Z,97731.16
2018-06-03T17:07:06.995Z,97723.82
2018-06-03T17:09:35.866Z,97730.45
2018-06-03T17:12:05.006Z,97723.83
2018-06-03T17:14:34.406Z,97724.33
2018-06-03T17:17:03.666Z,97729.08
2018-06-03T17:19:32.529Z,97725.41
2018-06-03T17:22:01.635Z,97722.69
2018-06-03T17:24:30.910Z,97717.36
2018-06-03T17:27:00.019Z,97707.36
2018-06-03T17:29:29.453Z,97710.20
2018-06-03T17:32:00.783Z,97705.91
2018-06-03T17:34:30.081Z,97708.64
2018-06-03T17:37:00.082Z,97712.19
2018-06-03T17:39:29.427Z,97709.36
2018-06-03T17:41:58.723Z,97712.53
2018-06-03T17:44:27.808Z,97709.70
2018-06-03T17:46:56.897Z,97705.22
2018-06-03T17:49:26.027Z,97708.09
2018-06-03T17:51:55.058Z,97699.26
2018-06-03T17:54:24.207Z,97703.07
2018-06-03T17:56:54.412Z,97703.58
2018-06-03T17:59:23.470Z,97698.36
2018-06-03T18:01:52.611Z,97693.59
2018-06-03T18:04:21.563Z,97695.43
2018-06-03T18:06:50.554Z,97687.60
2018-06-03T18:09:19.498Z,97692.19
2018-06-03T18:11:48.661Z,97687.61
2018-06-03T18:14:19.718Z,97690.30
2018-06-03T18:16:49.125Z,97686.48
2018-06-03T18:19:18.230Z,97691.53
2018-06-03T18:21:47.703Z,97690.98
2018-06-03T18:24:17.873Z,97691.71
2018-06-03T18:26:47.128Z,97686.27
2018-06-03T18:29:17.454Z,97695.70
2018-06-03T18:31:46.562Z,97693.45
2018-06-03T18:34:15.862Z,97698.31
2018-06-03T18:36:44.694Z,97695.92
2018-06-03T18:39:13.835Z,97697.31
2018-06-03T18:41:43.140Z,97696.23
2018-06-03T18:44:12.846Z,97700.22
2018-06-03T18:46:42.276Z,97702.94
2018-06-03T18:49:11.123Z,97699.20
2018-06-03T18:51:40.333Z,97693.50
2018-06-03T18:54:09.646Z,97695.16
2018-06-03T18:56:38.932Z,97691.69
2018-06-03T18:59:07.978Z,97687.80
2018-06-03T19:01:36.909Z,97685.45
2018-06-03T19:04:06.323Z,97691.81
2018-06-03T19:06:35.402Z,97695.82
2018-06-03T19:09:06.387Z,97693.73
2018-06-03T19:11:35.748Z,97698.93
2018-06-03T19:14:04.839Z,97695.23
2018-06-03T19:16:34.313Z,97701.73
2018-06-03T19:19:03.463Z,97705.91
2018-06-03T19:21:33.379Z,97705.57
2018-06-03T19:24:02.571Z,97704.00
2018-06-03T19:26:31.779Z,97708.55
2018-06-03T19:29:01.382Z,97706.00
2018-06-03T19:31:30.684Z,97711.34
2018-06-03T19:33:59.850Z,97712.17
2018-06-03T19:36:28.773Z,97715.56
2018-06-03T19:38:58.239Z,97716.78
2018-06-03T19:41:27.127Z,97711.66
2018-06-03T19:43:56.137Z,97709.89
2018-06-03T19:46:25.159Z,97719.55
2018-06-03T19:48:54.228Z,97717.39
2018-06-03T19:51:23.336Z,97713.26
2018-06-03T19:53:52.320Z,97723.10
2018-06-03T19:56:21.183Z,97720.55
2018-06-03T19:58:50.277Z,97719.97
2018-06-03T20:01:19.091Z,97724.31
2018-06-03T20:03:48.405Z,97727.26
2018-06-03T20:06:17.567Z,97724.30
2018-06-03T20:08:46.655Z,97716.23
2018-06-03T20:11:15.644Z,97718.77
2018-06-03T20:13:44.638Z,97717.19
2018-06-03T20:16:14.049Z,97714.62
2018-06-03T20:18:43.382Z,97711.44
2018-06-03T20:21:12.368Z,97714.01
2018-06-03T20:23:47.825Z,97715.96
2018-06-03T20:26:17.028Z,97714.38
2018-06-03T20:28:46.151Z,97723.64
2018-06-03T20:31:15.144Z,97724.80
2018-06-03T20:33:44.133Z,97717.31
2018-06-03T20:36:13.141Z,97722.63
2018-06-03T20:38:42.925Z,97718.67
2018-06-03T20:41:11.954Z,97724.94
2018-06-03T20:43:41.215Z,97727.70
2018-06-03T20:46:10.562Z,97724.16
2018-06-03T20:48:39.597Z,97726.32
2018-06-03T20:51:08.557Z,97723.91
2018-06-03T20:53:37.610Z,97727.02
2018-06-03T20:56:06.743Z,97725.59
2018-06-03T20:58:35.875Z,97732.66
2018-06-03T21:01:05.056Z,97734.59
2018-06-03T21:03:34.221Z,97733.80
2018-06-03T21:06:03.150Z,97732.20
2018-06-03T21:08:32.187Z,97734.12
2018-06-03T21:11:01.259Z,97739.78
2018-06-03T21:13:30.588Z,97741.11
2018-06-03T21:15:59.825Z,97738.74
2018-06-03T21:18:29.008Z,97741.22
2018-06-03T21:20:57.914Z,97737.07
2018-06-03T21:23:26.944Z,97734.27
2018-06-03T21:25:55.890Z,97734.02
2018-06-03T21:28:25.003Z,97737.81
2018-06-03T21:30:54.071Z,97739.38
2018-06-03T21:33:23.132Z,97739.25
2018-06-03T21:35:52.242Z,97738.94
2018-06-03T21:38:21.477Z,97741.92
2018-06-03T21:40:50.638Z,97742.70
2018-06-03T21:43:19.528Z,97741.78
2018-06-03T21:45:48.344Z,97736.29
2018-06-03T21:48:17.447Z,97737.84
2018-06-03T21:50:46.595Z,97736.27
2018-06-03T21:53:15.823Z,97736.34
2018-06-03T21:55:44.854Z,97732.22
2018-06-03T21:58:13.836Z,97734.59
2018-06-03T22:00:43.024Z,97745.10
2018-06-03T22:03:12.286Z,97743.78
2018-06-03T22:05:41.252Z,97743.91
2018-06-03T22:08:10.374Z,97745.89
2018-06-03T22:10:39.710Z,97741.37
2018-06-03T22:13:08.996Z,97749.14
2018-06-03T22:15:38.278Z,97752.44
2018-06-03T22:18:07.398Z,97750.05
2018-06-03T22:20:36.316Z,97748.53
2018-06-03T22:23:05.531Z,97745.43
2018-06-03T22:25:34.560Z,97746.59
2018-06-03T22:28:03.825Z,97746.57
2018-06-03T22:30:33.011Z,97746.31
2018-06-03T22:33:02.313Z,97741.81
2018-06-03T22:35:31.417Z,97741.26
2018-06-03T22:38:00.246Z,97734.14
2018-06-03T22:40:29.359Z,97731.39
2018-06-03T22:42:58.237Z,97734.31
2018-06-03T22:45:27.515Z,97727.77
2018-06-03T22:47:56.507Z,97726.31
2018-06-03T22:50:25.493Z,97730.23
2018-06-03T22:52:54.706Z,97725.06
2018-06-03T22:55:24.002Z,97723.08
2018-06-03T22:57:55.833Z,97727.92
2018-06-03T23:00:27.354Z,97733.75
2018-06-03T23:03:01.398Z,97728.38
2018-06-03T23:05:30.318Z,97728.89
2018-06-03T23:07:59.225Z,97722.69
2018-06-03T23:10:28.160Z,97724.47
2018-06-03T23:12:57.524Z,97725.92
2018-06-03T23:15:26.912Z,97722.27
2018-06-03T23:17:56.451Z,97722.16
2018-06-03T23:20:25.426Z,97711.23
2018-06-03T23:22:54.479Z,97718.16
2018-06-03T23:25:23.515Z,97712.88
2018-06-03T23:27:52.447Z,97714.83
2018-06-03T23:30:21.278Z,97714.59
2018-06-03T23:32:50.385Z,97719.59
2018-06-03T23:35:19.563Z,97717.73
2018-06-03T23:37:48.493Z,97717.53
2018-06-03T23:40:17.673Z,97712.80
2018-06-03T23:42:46.684Z,97713.52
2018-06-03T23:45:15.803Z,97711.12
2018-06-03T23:47:44.735Z,97711.91
2018-06-03T23:50:14.036Z,97716.11
2018-06-03T23:52:43.069Z,97717.09
2018-06-03T23:55:11.959Z,97712.28
2018-06-03T23:57:41.069Z,97716.05
